Time;durP1;ratioP1;P1;durP2;ratioP2;P2;SDS_P1;SDS_P2;PMS_P1;PMS_P2;Temp;Humidity;BMP_temperature;BMP_pressure;BME280_temperature;BME280_humidity;BME280_pressure;Samples;Min_cycle;Max_cycle;Signal;HPM_P1;HPM_P2
2024/04/07 00:00:36;;;;;;;6.20;0.82;;;20.90;90.40;;;;;;5084715;28;20086;-61
2024/04/07 00:03:02;;;;;;;3.63;0.98;;;20.90;91.00;;;;;;5075635;28;20075;-61
2024/04/07 00:05:29;;;;;;;10.07;1.20;;;20.90;90.40;;;;;;5071101;28;20053;-61
2024/04/07 00:07:56;;;;;;;3.13;0.90;;;21.00;90.60;;;;;;5072113;28;20045;-61
2024/04/07 00:10:21;;;;;;;6.10;0.73;;;21.00;90.70;;;;;;5079187;28;20048;-61
2024/04/07 00:12:47;;;;;;;2.13;0.80;;;21.00;90.90;;;;;;5079178;28;20044;-61
2024/04/07 00:15:13;;;;;;;3.03;0.80;;;21.00;90.30;;;;;;5080348;28;20052;-61
2024/04/07 00:17:39;;;;;;;3.15;0.80;;;21.00;90.50;;;;;;5073209;28;20083;-61
2024/04/07 00:20:06;;;;;;;3.85;1.00;;;21.00;90.70;;;;;;5073083;28;20041;-61
2024/04/07 00:22:31;;;;;;;2.55;0.70;;;21.00;90.60;;;;;;5072602;28;20519;-61
2024/04/07 00:24:57;;;;;;;6.63;1.08;;;21.00;90.10;;;;;;5069940;28;20078;-61
2024/04/07 00:27:23;;;;;;;6.72;1.10;;;21.20;90.30;;;;;;5084068;28;20074;-61
2024/04/07 00:29:50;;;;;;;3.90;0.75;;;21.20;90.40;;;;;;5078340;28;20053;-61
2024/04/07 00:32:16;;;;;;;4.50;0.80;;;21.20;90.10;;;;;;5074676;28;20075;-61
2024/04/07 00:34:44;;;;;;;3.30;1.00;;;21.20;90.20;;;;;;5101561;28;20049;-61
2024/04/07 00:37:10;;;;;;;6.10;1.10;;;21.10;90.60;;;;;;5075893;28;20090;-61
2024/04/07 00:39:36;;;;;;;2.70;0.77;;;21.00;90.60;;;;;;5079900;28;20040;-61
2024/04/07 00:42:02;;;;;;;3.00;0.80;;;21.00;90.60;;;;;;5075536;28;20101;-61
2024/04/07 00:44:27;;;;;;;5.72;0.80;;;20.90;90.70;;;;;;5075435;28;20053;-60
2024/04/07 00:46:53;;;;;;;5.85;1.08;;;20.90;90.80;;;;;;5074336;28;20076;-61
2024/04/07 00:49:19;;;;;;;7.85;1.15;;;20.80;90.50;;;;;;5074182;28;20059;-61
2024/04/07 00:51:45;;;;;;;5.10;1.20;;;20.90;90.40;;;;;;5077669;28;20052;-61
2024/04/07 00:54:12;;;;;;;5.95;1.00;;;21.00;90.40;;;;;;5079999;28;20068;-61
2024/04/07 00:56:38;;;;;;;10.68;1.08;;;21.20;90.50;;;;;;5072179;28;20049;-60
2024/04/07 00:59:05;;;;;;;8.23;1.58;;;21.30;90.10;;;;;;5069520;28;20053;-61
2024/04/07 01:01:32;;;;;;;4.38;1.10;;;21.20;90.70;;;;;;5073924;28;20073;-61
2024/04/07 01:03:58;;;;;;;4.72;1.20;;;21.10;90.70;;;;;;5101250;27;20110;-61
2024/04/07 01:06:24;;;;;;;2.97;0.95;;;21.20;90.60;;;;;;5075545;28;20142;-61
2024/04/07 01:08:53;;;;;;;9.10;2.47;;;21.20;90.70;;;;;;5097876;28;20053;-61
2024/04/07 01:11:19;;;;;;;4.38;1.10;;;21.20;90.70;;;;;;5074267;28;20144;-61
2024/04/07 01:13:44;;;;;;;10.73;1.55;;;21.10;90.70;;;;;;5066157;28;20045;-61
2024/04/07 01:16:10;;;;;;;7.65;1.90;;;21.10;90.40;;;;;;5069935;28;20060;-61
2024/04/07 01:18:36;;;;;;;9.38;1.48;;;21.20;90.60;;;;;;5070050;28;20055;-61
2024/04/07 01:21:02;;;;;;;8.20;1.40;;;21.40;90.20;;;;;;5079151;28;20048;-61
2024/04/07 01:23:28;;;;;;;4.63;1.10;;;21.30;90.60;;;;;;5078120;28;20496;-60
2024/04/07 01:25:53;;;;;;;10.18;1.33;;;21.30;90.40;;;;;;5102649;28;20051;-60
2024/04/07 01:28:19;;;;;;;3.50;1.13;;;21.20;91.20;;;;;;5068493;28;20044;-61
2024/04/07 01:30:45;;;;;;;7.78;1.38;;;21.10;91.10;;;;;;5069929;28;20045;-61
2024/04/07 01:33:11;;;;;;;7.53;1.67;;;20.90;92.20;;;;;;5097787;28;20122;-59
2024/04/07 01:35:37;;;;;;;9.63;1.38;;;20.90;91.30;;;;;;5066286;28;20048;-59
2024/04/07 01:38:03;;;;;;;3.13;0.82;;;20.80;91.90;;;;;;5079032;28;20586;-61
2024/04/07 01:40:28;;;;;;;6.07;1.20;;;20.60;92.90;;;;;;5076949;28;20045;-60
2024/04/07 01:42:54;;;;;;;6.45;1.38;;;20.50;93.20;;;;;;5079796;28;20064;-61
2024/04/07 01:45:21;;;;;;;7.25;1.00;;;20.30;93.50;;;;;;5073659;28;20105;-61
2024/04/07 01:47:46;;;;;;;3.90;1.15;;;20.20;93.20;;;;;;5070333;28;20080;-61
2024/04/07 01:50:12;;;;;;;4.82;0.90;;;20.00;94.50;;;;;;5055675;28;20080;-61
2024/04/07 01:52:38;;;;;;;5.03;1.13;;;19.90;94.10;;;;;;5072589;28;20040;-60
2024/04/07 01:55:04;;;;;;;3.83;1.13;;;19.80;94.20;;;;;;5073848;28;20445;-60
2024/04/07 01:57:30;;;;;;;7.18;1.40;;;19.60;95.10;;;;;;5064957;28;20462;-58
2024/04/07 01:59:56;;;;;;;4.85;1.10;;;19.50;94.90;;;;;;5066244;28;20136;-60
2024/04/07 02:02:22;;;;;;;2.20;0.75;;;19.40;95.10;;;;;;5079128;28;20044;-60
2024/04/07 02:04:49;;;;;;;3.47;0.80;;;19.30;95.10;;;;;;5075038;28;20045;-61
2024/04/07 02:07:17;;;;;;;4.22;1.50;;;19.20;95.00;;;;;;5074850;28;20056;-60
2024/04/07 02:09:45;;;;;;;4.85;1.15;;;19.10;95.60;;;;;;5069740;28;20597;-60
2024/04/07 02:12:12;;;;;;;4.57;1.17;;;18.90;97.10;;;;;;5066700;28;20044;-60
2024/04/07 02:14:37;;;;;;;4.55;1.10;;;18.70;96.80;;;;;;5098419;27;20053;-61
2024/04/07 02:17:03;;;;;;;7.53;2.00;;;18.60;97.80;;;;;;5073083;28;20122;-60
2024/04/07 02:19:29;;;;;;;4.97;1.00;;;18.40;97.60;;;;;;5080213;28;20048;-61
2024/04/07 02:21:55;;;;;;;6.65;1.63;;;18.30;99.40;;;;;;5073316;28;20099;-61
2024/04/07 02:24:21;;;;;;;10.52;2.70;;;18.10;99.40;;;;;;5076464;28;20048;-61
2024/04/07 02:26:47;;;;;;;9.27;2.72;;;18.00;99.90;;;;;;5064558;28;20044;-61
2024/04/07 02:29:13;;;;;;;7.43;1.23;;;17.80;99.90;;;;;;5080414;28;20530;-61
2024/04/07 02:31:39;;;;;;;4.65;1.38;;;17.70;99.90;;;;;;5072379;28;20106;-61
2024/04/07 02:34:05;;;;;;;5.30;1.60;;;17.70;99.90;;;;;;5071104;28;20513;-61
2024/04/07 02:36:31;;;;;;;5.32;1.67;;;17.60;99.90;;;;;;5070184;28;20141;-60
2024/04/07 02:38:57;;;;;;;4.40;1.25;;;17.60;99.90;;;;;;5077265;28;20040;-61
2024/04/07 02:41:23;;;;;;;7.53;1.63;;;17.50;99.90;;;;;;5075608;28;20058;-61
2024/04/07 02:43:51;;;;;;;5.80;1.40;;;17.40;99.90;;;;;;5070747;28;20547;-61
2024/04/07 02:49:01;;;;;;;13.43;3.70;;;17.30;99.90;;;;;;5071634;28;20404;-60
2024/04/07 02:51:27;;;;;;;8.82;5.00;;;17.10;99.90;;;;;;5075284;28;20043;-60
2024/04/07 02:53:53;;;;;;;13.95;5.60;;;17.00;99.90;;;;;;5100237;27;20488;-60
2024/04/07 02:56:20;;;;;;;11.93;5.28;;;16.90;99.90;;;;;;5076599;28;20469;-59
2024/04/07 02:58:46;;;;;;;7.13;2.72;;;16.80;99.90;;;;;;5072874;28;22062;-60
2024/04/07 03:01:11;;;;;;;7.93;2.03;;;16.80;99.90;;;;;;5071014;28;20057;-60
2024/04/07 03:03:37;;;;;;;5.80;1.55;;;16.90;99.90;;;;;;5071107;28;20421;-60
2024/04/07 03:06:08;;;;;;;3.13;1.02;;;17.20;99.90;;;;;;5065661;28;20051;-61
2024/04/07 03:08:35;;;;;;;5.35;0.75;;;17.30;99.90;;;;;;5076268;28;20495;-62
2024/04/07 03:11:02;;;;;;;3.45;0.70;;;17.40;99.90;;;;;;5068211;28;20053;-61
2024/04/07 03:13:29;;;;;;;3.88;0.98;;;17.40;99.90;;;;;;5075181;28;20048;-62
2024/04/07 03:15:54;;;;;;;2.47;1.10;;;17.30;99.90;;;;;;5072857;28;20045;-61
2024/04/07 03:18:21;;;;;;;4.68;0.90;;;17.30;99.90;;;;;;5072582;28;20478;-61
2024/04/07 03:20:47;;;;;;;9.50;1.60;;;17.20;99.90;;;;;;5067729;28;20581;-60
2024/04/07 03:23:13;;;;;;;4.68;1.40;;;17.30;99.90;;;;;;5078500;28;20067;-61
2024/04/07 03:25:39;;;;;;;4.82;1.00;;;17.30;99.90;;;;;;5072718;28;20047;-60
2024/04/07 03:28:05;;;;;;;9.30;1.30;;;17.40;99.90;;;;;;5075483;28;20057;-61
2024/04/07 03:30:32;;;;;;;6.25;1.48;;;17.40;99.90;;;;;;5072292;28;20044;-62
2024/04/07 03:32:58;;;;;;;4.65;1.13;;;17.50;99.90;;;;;;5073931;28;20105;-61
2024/04/07 03:35:24;;;;;;;8.05;1.75;;;17.60;99.90;;;;;;5079504;28;20079;-62
2024/04/07 03:37:50;;;;;;;6.10;1.55;;;17.70;99.90;;;;;;5081383;28;20056;-62
2024/04/07 03:40:17;;;;;;;10.07;1.60;;;17.80;99.90;;;;;;5075495;28;20055;-62
2024/04/07 03:42:43;;;;;;;5.65;1.77;;;17.90;99.90;;;;;;5074598;28;20048;-61
2024/04/07 03:45:09;;;;;;;4.28;1.77;;;17.90;99.90;;;;;;5082522;28;20484;-61
2024/04/07 03:47:39;;;;;;;5.93;1.88;;;17.80;99.90;;;;;;5078151;28;20389;-61
2024/04/07 03:50:06;;;;;;;4.43;1.40;;;18.00;99.90;;;;;;5079922;28;20064;-62
2024/04/07 03:52:32;;;;;;;14.00;1.85;;;18.20;99.60;;;;;;5081294;28;20098;-61
2024/04/07 03:54:58;;;;;;;4.63;1.33;;;18.40;99.40;;;;;;5069788;28;20052;-61
2024/04/07 03:57:24;;;;;;;6.43;1.25;;;18.40;99.80;;;;;;5077327;28;20056;-62
2024/04/07 03:59:49;;;;;;;3.38;1.35;;;18.30;99.90;;;;;;5076990;28;20048;-61
2024/04/07 04:02:29;;;;;;;8.23;2.08;;;18.20;99.90;;;;;;5084390;28;20173;-62
2024/04/07 04:04:59;;;;;;;6.13;1.33;;;18.20;99.90;;;;;;5074420;28;20052;-62
2024/04/07 04:07:27;;;;;;;5.07;1.38;;;18.20;99.90;;;;;;5073881;28;20114;-62
2024/04/07 04:09:54;;;;;;;4.43;1.30;;;18.20;99.90;;;;;;5077577;28;20056;-61
2024/04/07 04:12:21;;;;;;;5.38;1.17;;;18.20;99.90;;;;;;5077145;28;20056;-61
2024/04/07 04:14:47;;;;;;;5.32;1.38;;;18.10;99.90;;;;;;5075102;28;20041;-62
2024/04/07 04:17:14;;;;;;;8.57;1.65;;;18.10;99.90;;;;;;5076836;28;20054;-61
2024/04/07 04:19:40;;;;;;;6.00;1.23;;;18.00;99.90;;;;;;5077725;28;20091;-62
2024/04/07 04:22:07;;;;;;;6.85;1.35;;;17.90;99.90;;;;;;5098780;28;20106;-61
2024/04/07 04:24:33;;;;;;;4.70;1.20;;;17.80;99.90;;;;;;5071779;28;20059;-61
2024/04/07 04:27:00;;;;;;;6.00;1.58;;;17.60;99.90;;;;;;5067081;28;20045;-61
2024/04/07 04:29:26;;;;;;;6.53;1.30;;;17.50;99.90;;;;;;5080739;28;20097;-62
2024/04/07 04:31:52;;;;;;;6.95;1.27;;;17.50;99.90;;;;;;5071785;28;20055;-61
2024/04/07 04:34:18;;;;;;;6.20;1.35;;;17.40;99.90;;;;;;5075956;28;20448;-62
2024/04/07 04:36:43;;;;;;;6.70;1.20;;;17.40;99.90;;;;;;5075591;28;20247;-62
2024/04/07 04:39:09;;;;;;;5.70;1.38;;;17.40;99.90;;;;;;5100264;28;20075;-62
2024/04/07 04:41:35;;;;;;;5.75;0.90;;;17.30;99.90;;;;;;5079689;28;20063;-61
2024/04/07 04:44:01;;;;;;;7.07;1.00;;;17.20;99.90;;;;;;5085133;28;20063;-59
2024/04/07 04:46:26;;;;;;;6.60;1.50;;;17.30;99.90;;;;;;5075953;28;20106;-62
2024/04/07 04:48:52;;;;;;;4.18;0.90;;;17.30;99.90;;;;;;5074915;28;20048;-62
2024/04/07 04:51:18;;;;;;;5.03;1.38;;;17.20;99.90;;;;;;5072746;28;20484;-61
2024/04/07 04:53:44;;;;;;;6.55;1.30;;;17.20;99.90;;;;;;5079160;28;20496;-60
2024/04/07 04:56:10;;;;;;;6.10;1.10;;;17.20;99.90;;;;;;5068819;28;20170;-58
2024/04/07 04:58:35;;;;;;;5.60;1.25;;;17.10;99.90;;;;;;5076352;28;20510;-61
2024/04/07 05:01:16;;;;;;;3.28;1.00;;;17.10;99.90;;;;;;5072574;28;20551;-61
2024/04/07 05:03:44;;;;;;;4.40;1.20;;;17.10;99.90;;;;;;5073863;28;20078;-60
2024/04/07 05:06:13;;;;;;;3.50;1.10;;;17.10;99.90;;;;;;5057542;28;20052;-62
2024/04/07 05:08:40;;;;;;;8.00;1.70;;;17.00;99.90;;;;;;5073683;28;20051;-62
2024/04/07 05:11:07;;;;;;;5.90;1.17;;;17.00;99.90;;;;;;5078371;28;20045;-62
2024/04/07 05:13:33;;;;;;;3.40;0.98;;;17.00;99.90;;;;;;5077445;28;20052;-62
2024/04/07 05:16:00;;;;;;;5.70;0.95;;;17.00;99.90;;;;;;5069962;28;20052;-62
2024/04/07 05:18:29;;;;;;;6.78;1.17;;;17.00;99.90;;;;;;5070434;28;20052;-62
2024/04/07 05:20:56;;;;;;;8.68;1.15;;;17.10;99.90;;;;;;5076385;28;20051;-62
2024/04/07 05:23:22;;;;;;;7.57;1.50;;;17.20;99.90;;;;;;5081006;28;20082;-62
2024/04/07 05:25:48;;;;;;;8.05;1.38;;;17.20;99.90;;;;;;5082107;28;20089;-62
2024/04/07 05:28:14;;;;;;;3.33;1.05;;;17.20;99.90;;;;;;5076660;28;20497;-62
2024/04/07 05:30:40;;;;;;;4.65;1.10;;;17.20;99.90;;;;;;5057941;28;20134;-61
2024/04/07 05:33:06;;;;;;;4.43;0.98;;;17.30;99.90;;;;;;5099099;27;20507;-62
2024/04/07 05:35:32;;;;;;;8.30;1.50;;;17.40;99.90;;;;;;5076559;28;20036;-62
2024/04/07 05:37:59;;;;;;;9.50;2.30;;;17.40;99.90;;;;;;5074190;28;20056;-62
2024/04/07 05:40:25;;;;;;;2.72;0.93;;;17.40;99.90;;;;;;5079230;28;20060;-62
2024/04/07 05:42:51;;;;;;;2.85;1.45;;;17.50;99.90;;;;;;5074078;28;20154;-62
2024/04/07 05:45:17;;;;;;;10.15;1.50;;;17.50;99.90;;;;;;5077109;28;20523;-62
2024/04/07 05:47:52;;;;;;;5.53;1.38;;;17.50;99.90;;;;;;5077605;28;20048;-62
2024/04/07 05:50:18;;;;;;;7.18;1.52;;;17.50;99.90;;;;;;5078171;28;20060;-62
2024/04/07 05:52:43;;;;;;;3.30;1.00;;;17.60;99.90;;;;;;5073251;28;20066;-62
2024/04/07 05:55:10;;;;;;;5.82;1.55;;;17.70;99.90;;;;;;5099421;27;20080;-62
2024/04/07 05:57:36;;;;;;;8.77;0.88;;;17.80;99.90;;;;;;5077282;28;20078;-62
2024/04/07 06:00:06;;;;;;;6.55;1.40;;;17.80;99.90;;;;;;5078547;28;20037;-62
2024/04/07 06:02:32;;;;;;;7.13;1.10;;;17.80;99.90;;;;;;5080329;28;20047;-61
2024/04/07 06:05:01;;;;;;;5.55;1.23;;;17.70;99.90;;;;;;5065274;28;20051;-62
2024/04/07 06:07:28;;;;;;;8.73;1.70;;;17.70;99.90;;;;;;5075897;23;20324;-62
2024/04/07 06:09:55;;;;;;;4.57;1.00;;;17.60;99.90;;;;;;5034394;28;20056;-62
2024/04/07 06:12:21;;;;;;;4.15;1.30;;;17.60;99.90;;;;;;5052343;28;20064;-62
2024/04/07 06:14:47;;;;;;;4.97;1.30;;;17.50;99.90;;;;;;5058737;28;20049;-62
2024/04/07 06:17:14;;;;;;;6.88;1.30;;;17.50;99.90;;;;;;5048278;28;20128;-62
2024/04/07 06:19:40;;;;;;;9.65;1.45;;;17.50;99.90;;;;;;5053363;28;20048;-62
2024/04/07 06:22:06;;;;;;;7.18;1.48;;;17.50;99.90;;;;;;5053411;28;20052;-62
2024/04/07 06:24:32;;;;;;;7.10;1.23;;;17.50;99.90;;;;;;5060310;28;20052;-62
2024/04/07 06:26:57;;;;;;;8.43;1.30;;;17.50;99.90;;;;;;5057432;28;20106;-62
2024/04/07 06:29:23;;;;;;;5.22;1.35;;;17.60;99.90;;;;;;5059711;28;20056;-62
2024/04/07 06:31:50;;;;;;;9.95;0.88;;;17.70;99.90;;;;;;5049084;28;20454;-62
2024/04/07 06:34:16;;;;;;;5.97;1.02;;;17.90;99.90;;;;;;5055268;28;20055;-62
2024/04/07 06:36:42;;;;;;;8.45;1.50;;;18.10;99.90;;;;;;5050919;28;20102;-62
2024/04/07 06:39:08;;;;;;;5.65;1.50;;;18.50;99.90;;;;;;5053134;28;20049;-60
2024/04/07 06:41:34;;;;;;;5.72;1.10;;;18.80;99.90;;;;;;5050581;28;20059;-62
2024/04/07 06:44:04;;;;;;;7.40;1.17;;;19.20;99.90;;;;;;5046834;28;20041;-62
2024/04/07 06:46:30;;;;;;;8.18;1.20;;;19.40;99.90;;;;;;5049837;28;20053;-62
2024/04/07 06:48:56;;;;;;;6.50;1.20;;;19.60;99.90;;;;;;5046445;28;20109;-62
2024/04/07 06:51:22;;;;;;;3.42;1.25;;;19.80;99.90;;;;;;5055165;28;20048;-62
2024/04/07 06:53:48;;;;;;;7.75;1.50;;;19.90;99.90;;;;;;5057594;28;20477;-62
2024/04/07 06:56:14;;;;;;;6.68;1.17;;;20.00;99.90;;;;;;5055736;28;20167;-62
2024/04/07 06:58:39;;;;;;;8.80;1.50;;;20.10;99.90;;;;;;5054151;28;20128;-59
2024/04/07 07:01:05;;;;;;;3.28;1.20;;;20.10;99.90;;;;;;5057805;28;20064;-55
2024/04/07 07:03:31;;;;;;;8.23;1.30;;;20.20;99.90;;;;;;5060299;28;20044;-59
2024/04/07 07:05:58;;;;;;;8.90;1.67;;;20.20;99.90;;;;;;5060177;28;20102;-52
2024/04/07 07:08:23;;;;;;;5.68;1.52;;;20.10;99.90;;;;;;5064213;28;20086;-56
2024/04/07 07:10:59;;;;;;;9.45;1.42;;;20.10;99.90;;;;;;5061616;28;20065;-55
2024/04/07 07:13:26;;;;;;;4.47;0.98;;;20.10;99.90;;;;;;5058539;28;20059;-52
2024/04/07 07:15:52;;;;;;;6.78;1.23;;;20.20;99.90;;;;;;5057044;28;20544;-55
2024/04/07 07:18:18;;;;;;;7.85;1.40;;;20.20;99.90;;;;;;5059042;28;20092;-57
2024/04/07 07:20:44;;;;;;;4.15;0.90;;;20.20;99.90;;;;;;5055418;28;20528;-58
2024/04/07 07:23:11;;;;;;;6.85;1.20;;;20.20;99.90;;;;;;5058566;28;20061;-57
2024/04/07 07:25:39;;;;;;;5.22;1.02;;;20.40;99.90;;;;;;5059503;28;20134;-62
2024/04/07 07:28:05;;;;;;;4.55;1.15;;;20.40;99.90;;;;;;5055319;28;20041;-62
2024/04/07 07:30:32;;;;;;;9.02;1.55;;;20.40;99.90;;;;;;5057381;28;20053;-62
2024/04/07 07:32:57;;;;;;;3.30;1.10;;;20.40;99.90;;;;;;5061381;28;20480;-62
2024/04/07 07:35:23;;;;;;;10.88;1.70;;;20.30;99.90;;;;;;5062043;28;20056;-62
2024/04/07 07:37:49;;;;;;;5.60;1.40;;;20.30;99.90;;;;;;5062386;28;20131;-62
2024/04/07 07:40:15;;;;;;;13.52;1.65;;;20.40;99.90;;;;;;5056595;28;20044;-62
2024/04/07 07:42:41;;;;;;;5.05;1.17;;;20.40;99.90;;;;;;5062625;28;20049;-62
2024/04/07 07:45:07;;;;;;;5.53;1.52;;;20.40;99.90;;;;;;5059196;28;20060;-62
2024/04/07 07:47:35;;;;;;;4.63;1.30;;;20.60;99.90;;;;;;5058379;28;20052;-62
2024/04/07 07:50:00;;;;;;;5.55;1.13;;;20.90;99.90;;;;;;5044269;28;20063;-62
2024/04/07 07:52:26;;;;;;;10.73;1.30;;;21.00;99.90;;;;;;5045988;28;20056;-62
2024/04/07 07:54:52;;;;;;;6.63;1.65;;;21.20;99.90;;;;;;5041171;28;20045;-62
2024/04/07 07:57:17;;;;;;;6.75;1.05;;;21.10;99.90;;;;;;5054504;28;20064;-62
2024/04/07 07:59:43;;;;;;;5.45;1.10;;;21.30;99.90;;;;;;5061009;28;20048;-62
2024/04/07 08:02:09;;;;;;;7.72;1.40;;;21.50;99.90;;;;;;5059265;28;20091;-62
2024/04/07 08:04:37;;;;;;;6.60;1.08;;;21.70;99.90;;;;;;5056453;28;20048;-62
2024/04/07 08:07:03;;;;;;;7.93;1.38;;;21.90;99.90;;;;;;5059700;28;20064;-62
2024/04/07 08:09:29;;;;;;;9.13;1.20;;;22.00;99.90;;;;;;5060082;28;20102;-62
2024/04/07 08:11:54;;;;;;;8.90;1.30;;;22.20;99.90;;;;;;5058132;28;20060;-62
2024/04/07 08:14:21;;;;;;;6.28;1.83;;;22.30;99.90;;;;;;5057759;28;20055;-62
2024/04/07 08:16:47;;;;;;;7.68;1.42;;;22.20;99.70;;;;;;5060788;28;20439;-62
2024/04/07 08:19:13;;;;;;;7.38;1.77;;;22.30;99.90;;;;;;5053292;28;20045;-63
2024/04/07 08:21:39;;;;;;;5.13;1.30;;;22.30;99.90;;;;;;5051042;28;20059;-62
2024/04/07 08:24:06;;;;;;;5.30;1.30;;;22.40;99.90;;;;;;5061103;28;20468;-62
2024/04/07 08:26:31;;;;;;;8.40;1.38;;;22.30;99.80;;;;;;5067213;28;20495;-62
2024/04/07 08:28:57;;;;;;;7.32;1.45;;;22.10;99.60;;;;;;5058499;28;20044;-62
2024/04/07 08:31:23;;;;;;;12.63;1.48;;;22.10;99.90;;;;;;5067921;28;20053;-62
2024/04/07 08:33:49;;;;;;;7.75;1.40;;;22.10;99.90;;;;;;5065837;28;20059;-62
2024/04/07 08:36:14;;;;;;;7.63;1.55;;;22.10;99.60;;;;;;5061997;28;20052;-62
2024/04/07 08:38:41;;;;;;;9.77;1.83;;;22.10;99.70;;;;;;5060410;28;20056;-62
2024/04/07 08:41:14;;;;;;;5.88;1.50;;;22.10;99.80;;;;;;5065136;28;20097;-62
2024/04/07 08:43:41;;;;;;;6.55;1.30;;;22.20;99.90;;;;;;5062936;28;20045;-62
2024/04/07 08:46:14;;;;;;;8.18;1.48;;;22.20;99.80;;;;;;5062796;28;20071;-62
2024/04/07 08:48:46;;;;;;;11.77;1.67;;;22.40;99.90;;;;;;5059799;28;20915;-62
2024/04/07 08:51:12;;;;;;;7.85;1.55;;;22.50;99.70;;;;;;5058868;28;20178;-62
2024/04/07 08:53:40;;;;;;;6.20;1.85;;;22.50;99.80;;;;;;5055565;28;20542;-62
2024/04/07 08:56:07;;;;;;;7.05;1.58;;;22.50;99.90;;;;;;5050292;28;20045;-62
2024/04/07 08:58:34;;;;;;;9.23;2.30;;;22.40;99.90;;;;;;5049656;28;20106;-63
2024/04/07 09:01:00;;;;;;;9.45;1.70;;;22.40;99.90;;;;;;5056124;28;20048;-62
2024/04/07 09:03:29;;;;;;;7.03;1.42;;;22.40;99.80;;;;;;5062033;28;20111;-62
2024/04/07 09:05:55;;;;;;;5.90;1.20;;;22.50;99.30;;;;;;5066092;28;20041;-62
2024/04/07 09:08:21;;;;;;;7.53;1.42;;;22.50;99.10;;;;;;5062423;28;20101;-62
2024/04/07 09:10:47;;;;;;;9.07;1.52;;;22.60;99.90;;;;;;5065880;28;20739;-62
2024/04/07 09:13:13;;;;;;;7.78;1.75;;;22.50;99.70;;;;;;5062187;28;20041;-62
2024/04/07 09:15:39;;;;;;;8.80;1.50;;;22.50;99.00;;;;;;5065201;28;20091;-62
2024/04/07 09:18:05;;;;;;;6.18;1.40;;;22.50;99.30;;;;;;5055618;28;20062;-62
2024/04/07 09:20:32;;;;;;;10.68;1.67;;;22.50;99.90;;;;;;5054607;28;20416;-62
2024/04/07 09:22:58;;;;;;;16.55;2.72;;;22.70;99.90;;;;;;5052008;28;20060;-62
2024/04/07 09:25:24;;;;;;;9.32;1.70;;;22.70;98.90;;;;;;5053064;28;20092;-62
2024/04/07 09:27:49;;;;;;;9.10;1.60;;;22.80;98.70;;;;;;5050005;28;20045;-62
2024/04/07 09:30:15;;;;;;;7.15;1.80;;;22.90;99.20;;;;;;5055859;28;20059;-63
2024/04/07 09:32:42;;;;;;;8.50;1.52;;;23.00;99.20;;;;;;5057630;28;20408;-63
2024/04/07 09:35:08;;;;;;;13.25;1.70;;;23.00;99.90;;;;;;5063468;28;20052;-62
2024/04/07 09:37:41;;;;;;;9.38;1.60;;;23.10;98.40;;;;;;5058592;28;20098;-62
2024/04/07 09:40:07;;;;;;;9.80;2.30;;;23.30;99.10;;;;;;5062037;28;20040;-62
2024/04/07 09:42:37;;;;;;;12.05;1.58;;;23.30;98.80;;;;;;5055074;28;20059;-62
2024/04/07 09:45:05;;;;;;;13.02;1.73;;;23.40;99.90;;;;;;5049505;28;20047;-62
2024/04/07 09:47:35;;;;;;;12.55;1.63;;;23.40;99.20;;;;;;5055441;28;20053;-62
2024/04/07 09:50:37;;;;;;;12.18;2.03;;;23.50;99.00;;;;;;5053887;28;20044;-62
2024/04/07 09:53:25;;;;;;;8.98;1.52;;;23.60;98.70;;;;;;5045323;28;20052;-62
2024/04/07 09:55:55;;;;;;;8.02;1.30;;;23.60;99.70;;;;;;5052957;28;20052;-62
2024/04/07 09:58:23;;;;;;;16.98;2.08;;;23.70;99.80;;;;;;5054036;28;20042;-63
2024/04/07 10:00:50;;;;;;;8.52;1.52;;;23.80;98.80;;;;;;5058811;28;20037;-63
2024/04/07 10:03:16;;;;;;;6.25;1.75;;;23.80;99.00;;;;;;5050695;28;20467;-62
2024/04/07 10:05:42;;;;;;;8.60;1.60;;;23.80;99.30;;;;;;5052483;28;20052;-62
2024/04/07 10:08:08;;;;;;;7.72;2.42;;;23.90;99.00;;;;;;5050157;28;20609;-62
2024/04/07 10:10:37;;;;;;;9.75;1.50;;;24.00;99.80;;;;;;5049437;28;20721;-57
2024/04/07 10:13:10;;;;;;;13.38;2.08;;;24.00;98.80;;;;;;5053041;28;20750;-58
2024/04/07 10:15:37;;;;;;;11.38;1.95;;;24.10;98.70;;;;;;5056410;28;20067;-58
2024/04/07 10:18:17;;;;;;;9.02;1.42;;;24.20;98.90;;;;;;5053112;28;20045;-60
2024/04/07 10:20:44;;;;;;;11.55;2.10;;;24.40;99.50;;;;;;5054215;28;20390;-59
2024/04/07 10:23:13;;;;;;;8.95;1.58;;;24.40;98.60;;;;;;5036192;28;20064;-60
2024/04/07 10:25:46;;;;;;;9.18;1.60;;;24.40;98.30;;;;;;5056102;28;20496;-59
2024/04/07 10:28:12;;;;;;;8.95;1.67;;;24.40;98.50;;;;;;5055215;28;20048;-56
2024/04/07 10:30:49;;;;;;;11.57;1.77;;;24.40;98.10;;;;;;5054184;28;20052;-59
2024/04/07 10:33:15;;;;;;;6.85;1.60;;;24.40;99.00;;;;;;5054237;28;20049;-60
2024/04/07 10:35:58;;;;;;;13.48;1.90;;;24.40;98.80;;;;;;5055941;28;20040;-58
2024/04/07 10:38:24;;;;;;;11.75;1.38;;;24.50;98.30;;;;;;5056098;28;20060;-62
2024/04/07 10:40:55;;;;;;;11.93;2.35;;;24.50;98.40;;;;;;5052453;28;20513;-62
2024/04/07 10:43:22;;;;;;;15.95;1.50;;;24.60;98.00;;;;;;5060553;28;20102;-62
2024/04/07 10:45:48;;;;;;;7.05;1.77;;;24.80;99.40;;;;;;5059459;28;20479;-62
2024/04/07 10:48:14;;;;;;;8.43;1.40;;;25.00;99.80;;;;;;5057825;28;20052;-62
2024/04/07 10:50:39;;;;;;;8.52;1.38;;;25.00;98.90;;;;;;5059586;28;20511;-62
2024/04/07 10:53:08;;;;;;;10.75;2.45;;;25.00;96.80;;;;;;5051581;28;20130;-62
2024/04/07 10:55:34;;;;;;;9.70;2.65;;;25.10;98.80;;;;;;5058660;28;20413;-62
2024/04/07 10:58:00;;;;;;;7.95;1.63;;;25.00;98.10;;;;;;5057211;28;20040;-62
2024/04/07 11:00:26;;;;;;;10.77;2.20;;;25.00;97.90;;;;;;5060085;28;20403;-62
2024/04/07 11:02:53;;;;;;;12.45;1.40;;;25.00;97.90;;;;;;5057594;28;20055;-62
2024/04/07 11:05:18;;;;;;;7.47;1.25;;;25.00;98.60;;;;;;5057893;28;20053;-62
2024/04/07 11:07:46;;;;;;;11.43;1.77;;;24.80;97.30;;;;;;5062438;28;20052;-62
2024/04/07 11:10:12;;;;;;;7.55;1.58;;;24.70;99.20;;;;;;5055924;28;20473;-62
2024/04/07 11:12:43;;;;;;;9.20;1.42;;;24.70;98.40;;;;;;5057366;28;20048;-63
2024/04/07 11:15:19;;;;;;;8.45;1.70;;;24.70;99.00;;;;;;5062027;28;20040;-63
2024/04/07 11:17:45;;;;;;;8.70;2.72;;;24.80;98.20;;;;;;5058294;28;20391;-62
2024/04/07 11:20:12;;;;;;;7.60;1.45;;;24.90;97.70;;;;;;5054916;28;20049;-62
2024/04/07 11:22:39;;;;;;;6.78;1.40;;;25.10;98.90;;;;;;5051036;28;20051;-62
2024/04/07 11:25:05;;;;;;;6.35;1.10;;;25.20;99.10;;;;;;5060972;28;20048;-62
2024/04/07 11:27:32;;;;;;;6.10;1.45;;;25.30;98.30;;;;;;5058831;28;20413;-63
2024/04/07 11:30:03;;;;;;;10.63;1.38;;;25.40;97.90;;;;;;5061625;28;20052;-62
2024/04/07 11:32:29;;;;;;;9.48;2.70;;;25.50;98.30;;;;;;5041907;28;20045;-63
2024/04/07 11:34:55;;;;;;;13.68;1.50;;;25.60;97.80;;;;;;5060601;28;20102;-62
2024/04/07 11:37:21;;;;;;;7.43;1.40;;;25.70;97.50;;;;;;5060874;28;20048;-63
2024/04/07 11:39:51;;;;;;;7.57;1.38;;;25.90;98.30;;;;;;5060063;28;20044;-63
2024/04/07 11:42:24;;;;;;;9.32;1.67;;;26.10;98.00;;;;;;5056572;28;20450;-63
2024/04/07 11:44:50;;;;;;;5.68;1.63;;;26.20;97.40;;;;;;5055319;28;20045;-63
2024/04/07 11:47:16;;;;;;;12.95;1.45;;;26.20;96.90;;;;;;5057589;28;20629;-63
2024/04/07 11:49:43;;;;;;;11.60;1.38;;;26.20;96.70;;;;;;5061136;28;20056;-63
2024/04/07 11:52:09;;;;;;;9.80;1.65;;;26.30;97.20;;;;;;5050485;28;20556;-63
2024/04/07 11:54:35;;;;;;;8.13;1.70;;;26.40;96.60;;;;;;5064876;28;20056;-62
2024/04/07 11:57:01;;;;;;;7.65;1.73;;;26.40;97.10;;;;;;5057151;28;20045;-63
2024/04/07 11:59:26;;;;;;;9.70;1.52;;;26.00;96.30;;;;;;5054528;28;20164;-63
2024/04/07 12:01:52;;;;;;;6.90;1.35;;;26.00;97.70;;;;;;5042305;28;20045;-63
2024/04/07 12:04:18;;;;;;;7.55;1.38;;;25.90;96.80;;;;;;5060722;28;20088;-63
2024/04/07 12:06:44;;;;;;;7.97;1.73;;;25.90;96.60;;;;;;5063082;28;20048;-63
2024/04/07 12:09:10;;;;;;;11.13;2.03;;;26.00;97.80;;;;;;5066380;28;20163;-62
2024/04/07 12:11:36;;;;;;;5.70;1.55;;;26.00;97.60;;;;;;5064115;28;20040;-62
2024/04/07 12:14:02;;;;;;;9.40;1.50;;;26.10;97.20;;;;;;5063049;28;20113;-63
2024/04/07 12:16:29;;;;;;;14.55;3.50;;;26.10;97.80;;;;;;5066277;28;20051;-63
2024/04/07 12:18:55;;;;;;;6.15;1.83;;;26.20;97.70;;;;;;5057542;28;20107;-63
2024/04/07 12:21:21;;;;;;;9.27;2.25;;;26.20;98.20;;;;;;5064548;28;20072;-63
2024/04/07 12:23:46;;;;;;;7.10;1.30;;;26.20;97.20;;;;;;5062402;28;20051;-63
2024/04/07 12:26:12;;;;;;;9.70;1.60;;;26.20;97.80;;;;;;5062624;28;20053;-61
2024/04/07 12:28:38;;;;;;;6.53;1.52;;;26.20;97.60;;;;;;5056074;28;20093;-61
2024/04/07 12:31:04;;;;;;;7.10;1.17;;;26.20;97.90;;;;;;5061182;28;20513;-61
2024/04/07 12:33:30;;;;;;;5.85;1.40;;;26.00;97.50;;;;;;5067990;28;20184;-61
2024/04/07 12:35:55;;;;;;;7.18;1.50;;;25.70;97.30;;;;;;5063167;28;20052;-63
2024/04/07 12:38:21;;;;;;;2.88;1.15;;;25.50;98.00;;;;;;5067206;28;20048;-63
2024/04/07 12:40:47;;;;;;;5.10;1.10;;;25.40;99.20;;;;;;5063122;28;20052;-63
2024/04/07 12:43:13;;;;;;;6.22;1.40;;;25.30;99.20;;;;;;5066007;28;20056;-62
2024/04/07 12:45:39;;;;;;;9.80;1.60;;;25.30;98.50;;;;;;5061572;28;20114;-63